Time;durP1;ratioP1;P1;durP2;ratioP2;P2;SDS_P1;SDS_P2;PMS_P1;PMS_P2;Temp;Humidity;BMP_temperature;BMP_pressure;BME280_temperature;BME280_humidity;BME280_pressure;Samples;Min_cycle;Max_cycle;Signal;HPM_P1;HPM_P2
2021/01/08 00:01:40;;;;;;;27.07;18.47;;;2.10;99.90;;;;;;6277946;28;20485;-59
2021/01/08 00:04:42;;;;;;;36.03;20.67;;;1.90;99.90;;;;;;6278154;28;20978;-59
2021/01/08 00:07:45;;;;;;;29.37;19.30;;;1.90;99.90;;;;;;6277568;28;20485;-60
2021/01/08 00:10:48;;;;;;;32.20;21.20;;;1.90;99.90;;;;;;6277807;28;20478;-60
2021/01/08 00:13:52;;;;;;;31.67;20.30;;;1.70;99.90;;;;;;6254972;28;20477;-60
2021/01/08 00:16:54;;;;;;;30.97;20.80;;;1.60;99.90;;;;;;6251936;28;20573;-59
2021/01/08 00:19:57;;;;;;;33.87;20.23;;;1.60;99.90;;;;;;6246718;28;20485;-59
2021/01/08 00:22:59;;;;;;;31.03;20.37;;;1.70;99.90;;;;;;6251392;28;20471;-58
2021/01/08 00:26:01;;;;;;;30.17;19.23;;;1.80;99.90;;;;;;6251277;28;20506;-59
2021/01/08 00:29:05;;;;;;;37.90;20.50;;;1.80;99.90;;;;;;6251158;28;20478;-58
2021/01/08 00:32:09;;;;;;;34.37;20.83;;;1.90;99.90;;;;;;6250808;28;20483;-59
2021/01/08 00:35:12;;;;;;;29.93;17.83;;;1.90;99.90;;;;;;6276009;28;20455;-61
2021/01/08 00:38:14;;;;;;;33.97;20.47;;;2.00;99.90;;;;;;6251377;28;20449;-58
2021/01/08 00:41:16;;;;;;;32.60;18.27;;;2.00;99.90;;;;;;6251175;28;20463;-58
2021/01/08 00:44:19;;;;;;;38.77;22.73;;;2.00;99.90;;;;;;6262586;28;20456;-59
2021/01/08 00:47:21;;;;;;;30.97;20.07;;;2.00;99.90;;;;;;6275690;28;20446;-58
2021/01/08 00:50:24;;;;;;;39.70;20.00;;;2.10;99.90;;;;;;6275284;28;20458;-58
2021/01/08 00:53:26;;;;;;;38.90;19.93;;;2.10;99.90;;;;;;6272067;28;20449;-58
2021/01/08 00:56:28;;;;;;;31.00;19.57;;;2.20;99.90;;;;;;6272916;28;20919;-58
2021/01/08 00:59:32;;;;;;;34.10;20.80;;;2.20;99.90;;;;;;6273646;28;20459;-58
2021/01/08 01:02:34;;;;;;;39.67;21.30;;;2.30;99.90;;;;;;6273138;28;20481;-58
2021/01/08 01:05:36;;;;;;;35.70;20.17;;;2.40;99.90;;;;;;6272867;28;20470;-58
2021/01/08 01:08:39;;;;;;;27.77;18.73;;;2.30;99.90;;;;;;6273142;28;20485;-58
2021/01/08 01:11:41;;;;;;;31.20;19.60;;;2.40;99.90;;;;;;6274206;28;20545;-58
2021/01/08 01:14:47;;;;;;;35.10;20.23;;;2.30;99.90;;;;;;6233920;28;612773;-58
2021/01/08 01:17:49;;;;;;;36.30;19.53;;;2.30;99.90;;;;;;6265999;28;20770;-58
2021/01/08 01:20:51;;;;;;;44.70;23.73;;;2.30;99.90;;;;;;6267079;28;20454;-58
2021/01/08 01:23:54;;;;;;;35.80;19.73;;;2.30;99.90;;;;;;6276381;28;20466;-59
2021/01/08 01:26:58;;;;;;;36.77;20.63;;;2.30;99.90;;;;;;6276115;28;20458;-58
2021/01/08 01:30:01;;;;;;;34.07;19.60;;;2.30;99.90;;;;;;6275765;28;20458;-59
2021/01/08 01:33:03;;;;;;;32.93;22.27;;;2.30;99.90;;;;;;6276280;28;20791;-59
2021/01/08 01:36:07;;;;;;;38.23;21.20;;;2.30;99.90;;;;;;6276378;28;20535;-59
2021/01/08 01:39:09;;;;;;;40.77;22.97;;;2.20;99.90;;;;;;6276417;28;20470;-58
2021/01/08 01:42:12;;;;;;;37.47;21.77;;;2.30;99.90;;;;;;6275076;28;20481;-58
2021/01/08 01:45:15;;;;;;;41.30;20.73;;;2.20;99.90;;;;;;6275573;28;20989;-58
2021/01/08 01:48:18;;;;;;;37.63;22.03;;;2.20;99.90;;;;;;6275408;28;21030;-59
2021/01/08 01:51:22;;;;;;;39.00;21.20;;;2.20;99.90;;;;;;6275174;28;20466;-59
2021/01/08 01:54:24;;;;;;;31.30;20.40;;;2.10;99.90;;;;;;6275518;28;20466;-59
2021/01/08 01:57:26;;;;;;;40.07;20.33;;;2.10;99.90;;;;;;6275133;28;20493;-59
2021/01/08 02:00:29;;;;;;;41.87;20.57;;;2.10;99.90;;;;;;6275366;28;20992;-59
2021/01/08 02:03:37;;;;;;;34.60;21.20;;;2.10;99.90;;;;;;6275807;28;20470;-58
2021/01/08 02:06:40;;;;;;;38.67;21.57;;;2.10;99.90;;;;;;6275443;28;20548;-58
2021/01/08 02:09:43;;;;;;;34.57;21.87;;;2.10;99.90;;;;;;6275224;28;20469;-58
2021/01/08 02:12:46;;;;;;;38.17;20.20;;;2.10;99.90;;;;;;6275210;28;20475;-58
2021/01/08 02:15:52;;;;;;;39.23;21.37;;;2.10;99.90;;;;;;6274923;28;20485;-58
2021/01/08 02:18:56;;;;;;;36.93;20.10;;;2.10;99.90;;;;;;6274991;28;20813;-58
2021/01/08 02:22:06;;;;;;;44.80;22.27;;;2.10;99.90;;;;;;6275012;28;20467;-58
2021/01/08 02:25:13;;;;;;;33.33;21.77;;;2.10;99.90;;;;;;6270683;28;20501;-58
2021/01/08 02:28:20;;;;;;;35.10;21.43;;;2.10;99.90;;;;;;6274732;28;20477;-57
2021/01/08 02:31:22;;;;;;;36.90;19.63;;;2.00;99.90;;;;;;6274929;28;20482;-60
2021/01/08 02:34:26;;;;;;;38.30;19.87;;;2.00;99.90;;;;;;6274618;28;20818;-58
2021/01/08 02:37:29;;;;;;;46.23;22.17;;;2.00;99.90;;;;;;6274829;28;20508;-58
2021/01/08 02:40:33;;;;;;;43.90;21.57;;;2.00;99.90;;;;;;6274874;28;20516;-58
2021/01/08 02:43:35;;;;;;;41.30;23.30;;;1.90;99.90;;;;;;6273223;28;20997;-58
2021/01/08 02:46:37;;;;;;;35.63;20.00;;;2.00;99.90;;;;;;6272125;28;20481;-58
2021/01/08 02:49:40;;;;;;;46.37;22.50;;;2.00;99.90;;;;;;6272394;28;20623;-58
2021/01/08 02:52:47;;;;;;;38.20;21.10;;;1.90;99.90;;;;;;6271992;28;20504;-58
2021/01/08 02:55:56;;;;;;;37.10;21.50;;;2.00;99.90;;;;;;6272253;28;20477;-58
2021/01/08 02:58:59;;;;;;;39.20;20.73;;;2.00;99.90;;;;;;6272664;28;20795;-60
2021/01/08 03:02:03;;;;;;;38.70;20.40;;;2.00;99.90;;;;;;6273058;28;20561;-58
2021/01/08 03:05:06;;;;;;;39.80;22.33;;;2.00;99.90;;;;;;6274168;28;20470;-58
2021/01/08 03:08:09;;;;;;;44.50;22.90;;;2.00;99.90;;;;;;6275046;28;20466;-58
2021/01/08 03:11:12;;;;;;;48.30;24.00;;;2.00;99.90;;;;;;6273952;28;20477;-58
2021/01/08 03:14:14;;;;;;;40.50;20.80;;;2.10;99.90;;;;;;6297825;28;20948;-58
2021/01/08 03:17:16;;;;;;;40.27;22.60;;;2.10;99.90;;;;;;6273427;28;20461;-58
2021/01/08 03:20:19;;;;;;;37.50;21.17;;;2.10;99.90;;;;;;6273179;28;20465;-59
2021/01/08 03:23:21;;;;;;;34.90;20.70;;;2.20;99.90;;;;;;6273714;28;20453;-58
2021/01/08 03:26:24;;;;;;;33.13;20.97;;;2.20;99.90;;;;;;6264631;28;20430;-58
2021/01/08 03:29:26;;;;;;;39.37;22.63;;;2.30;99.90;;;;;;6273245;28;20439;-58
2021/01/08 03:32:28;;;;;;;36.57;21.00;;;2.40;99.90;;;;;;6272846;28;20470;-58
2021/01/08 03:35:31;;;;;;;39.63;22.03;;;2.40;99.90;;;;;;6273544;28;20443;-58
2021/01/08 03:38:33;;;;;;;42.77;21.50;;;2.40;99.90;;;;;;6273048;28;20802;-58
2021/01/08 03:41:38;;;;;;;36.83;22.40;;;2.50;99.90;;;;;;6270663;28;21029;-57
2021/01/08 03:44:40;;;;;;;36.10;22.50;;;2.50;99.90;;;;;;6273593;28;20477;-58
2021/01/08 03:47:42;;;;;;;34.40;19.70;;;2.60;99.90;;;;;;6274342;28;20461;-58
2021/01/08 03:50:44;;;;;;;34.23;21.07;;;2.70;99.90;;;;;;6273964;28;20512;-59
2021/01/08 03:53:46;;;;;;;35.27;22.70;;;2.70;99.90;;;;;;6274220;28;20466;-58
2021/01/08 03:56:49;;;;;;;35.00;20.37;;;2.70;99.90;;;;;;6273643;28;20491;-58
2021/01/08 03:59:52;;;;;;;34.23;21.37;;;2.70;99.90;;;;;;6273878;28;20462;-58
2021/01/08 04:02:54;;;;;;;32.57;18.73;;;2.70;99.90;;;;;;6273947;28;20474;-58
2021/01/08 04:05:57;;;;;;;30.07;18.90;;;2.70;99.90;;;;;;6275523;28;20485;-58
2021/01/08 04:08:59;;;;;;;30.10;19.27;;;2.70;99.90;;;;;;6278133;28;20969;-58
2021/01/08 04:12:02;;;;;;;31.37;19.30;;;2.70;99.90;;;;;;6277871;28;20576;-58
2021/01/08 04:15:06;;;;;;;34.73;18.57;;;2.70;99.90;;;;;;6278412;28;20473;-58
2021/01/08 04:18:09;;;;;;;34.07;18.30;;;2.60;99.90;;;;;;6278332;28;20789;-58
2021/01/08 04:21:11;;;;;;;41.50;20.50;;;2.70;99.90;;;;;;6278123;28;20474;-58
2021/01/08 04:24:13;;;;;;;30.87;19.67;;;2.70;99.90;;;;;;6278164;28;20485;-58
2021/01/08 04:27:16;;;;;;;32.80;21.03;;;2.80;99.90;;;;;;6277898;28;20478;-58
2021/01/08 04:30:19;;;;;;;35.70;20.17;;;2.80;99.90;;;;;;6273833;28;20489;-58
2021/01/08 04:33:21;;;;;;;36.33;20.67;;;2.70;99.90;;;;;;6277695;28;20943;-58
2021/01/08 04:36:23;;;;;;;31.47;20.30;;;2.80;99.90;;;;;;6278106;28;20812;-58
2021/01/08 04:39:25;;;;;;;32.07;18.40;;;2.70;99.90;;;;;;6277926;28;20475;-58
2021/01/08 04:42:28;;;;;;;37.33;20.07;;;2.80;99.90;;;;;;6277166;28;20810;-62
2021/01/08 04:45:30;;;;;;;23.87;16.00;;;2.80;99.90;;;;;;6277444;28;20482;-59
2021/01/08 04:48:34;;;;;;;29.77;16.57;;;2.80;99.90;;;;;;6277605;28;20470;-58
2021/01/08 04:51:38;;;;;;;26.30;15.80;;;2.80;99.90;;;;;;6277536;28;20478;-58
2021/01/08 04:54:41;;;;;;;28.33;15.90;;;2.80;99.90;;;;;;6277245;28;20564;-58
2021/01/08 04:57:48;;;;;;;19.57;14.27;;;2.80;99.90;;;;;;6277131;28;20482;-58
2021/01/08 05:00:50;;;;;;;21.43;13.93;;;2.90;99.90;;;;;;6277022;28;20481;-58
2021/01/08 05:03:52;;;;;;;21.27;12.77;;;2.90;99.90;;;;;;6277037;28;20982;-58
2021/01/08 05:06:55;;;;;;;19.80;12.03;;;2.90;99.90;;;;;;6277393;28;20485;-58
2021/01/08 05:10:01;;;;;;;21.73;13.43;;;2.90;99.90;;;;;;6277321;28;20474;-59
2021/01/08 05:13:05;;;;;;;17.80;12.30;;;2.90;99.90;;;;;;6276144;28;20478;-59
2021/01/08 05:16:07;;;;;;;20.50;14.40;;;2.90;99.90;;;;;;6276619;28;20478;-62
2021/01/08 05:19:09;;;;;;;17.37;14.17;;;2.90;99.90;;;;;;6275575;28;20993;-59
2021/01/08 05:22:13;;;;;;;17.20;11.30;;;2.90;99.90;;;;;;6276472;28;20474;-58
2021/01/08 05:25:16;;;;;;;17.23;12.83;;;2.90;99.90;;;;;;6276629;28;20811;-59
2021/01/08 05:28:19;;;;;;;17.60;12.60;;;2.90;99.90;;;;;;6276457;28;20477;-59
2021/01/08 05:31:23;;;;;;;14.77;10.93;;;2.90;99.90;;;;;;6276454;28;20489;-59
2021/01/08 05:34:26;;;;;;;13.13;10.30;;;2.90;99.90;;;;;;6276360;28;20470;-59
2021/01/08 05:37:29;;;;;;;10.70;8.30;;;2.80;99.90;;;;;;6271742;28;20489;-59
2021/01/08 05:40:31;;;;;;;14.50;10.50;;;2.90;99.90;;;;;;6276255;28;20466;-59
2021/01/08 05:43:35;;;;;;;11.20;8.80;;;2.90;99.90;;;;;;6275928;28;20466;-59
2021/01/08 05:46:37;;;;;;;13.87;10.10;;;2.90;99.90;;;;;;6276369;28;20463;-59
2021/01/08 05:49:40;;;;;;;16.27;12.00;;;2.80;99.90;;;;;;6275876;28;20909;-59
2021/01/08 05:52:45;;;;;;;15.50;11.90;;;2.80;99.90;;;;;;6275956;28;20482;-59
2021/01/08 05:55:47;;;;;;;10.53;9.33;;;2.80;99.90;;;;;;6275587;28;20485;-58
2021/01/08 05:58:50;;;;;;;12.70;9.43;;;2.90;99.90;;;;;;6275421;28;20470;-58
2021/01/08 06:01:56;;;;;;;14.93;9.40;;;2.90;99.90;;;;;;6275467;28;20470;-58
2021/01/08 06:04:59;;;;;;;15.70;11.43;;;3.00;99.90;;;;;;6275708;28;20974;-59
2021/01/08 06:08:06;;;;;;;19.77;15.40;;;3.00;99.90;;;;;;6275464;28;21044;-59
2021/01/08 06:11:17;;;;;;;13.83;10.13;;;3.00;99.90;;;;;;6275542;28;20485;-59
2021/01/08 06:14:20;;;;;;;13.30;9.33;;;3.00;99.90;;;;;;6274885;28;20438;-59
2021/01/08 06:17:23;;;;;;;12.37;10.00;;;3.00;99.90;;;;;;6275536;28;20535;-59
2021/01/08 06:20:29;;;;;;;12.40;10.57;;;3.00;99.90;;;;;;6275026;28;20613;-59
2021/01/08 06:23:41;;;;;;;13.50;11.80;;;3.00;99.90;;;;;;6275340;28;20425;-58
2021/01/08 06:26:46;;;;;;;25.70;14.80;;;3.00;99.90;;;;;;6275462;28;20557;-59
2021/01/08 06:29:59;;;;;;;28.47;16.83;;;3.00;99.90;;;;;;6274419;28;20462;-59
2021/01/08 06:33:04;;;;;;;34.63;20.80;;;3.00;99.90;;;;;;6274999;28;20480;-58
2021/01/08 06:36:16;;;;;;;37.97;19.50;;;2.80;99.90;;;;;;6275245;28;20470;-58
2021/01/08 06:39:22;;;;;;;39.67;20.80;;;2.70;99.90;;;;;;6270812;28;20489;-58
2021/01/08 06:42:26;;;;;;;29.90;18.73;;;2.60;99.90;;;;;;6274657;28;20466;-59
2021/01/08 06:45:30;;;;;;;35.40;20.57;;;2.50;99.90;;;;;;6274784;28;20985;-59
2021/01/08 06:48:36;;;;;;;38.70;19.10;;;2.50;99.90;;;;;;6274774;28;20500;-59
2021/01/08 06:51:41;;;;;;;31.87;22.00;;;2.50;99.90;;;;;;6274889;28;20470;-59
2021/01/08 06:54:44;;;;;;;40.10;21.70;;;2.40;99.90;;;;;;6274691;28;20481;-59
2021/01/08 06:57:52;;;;;;;31.93;19.17;;;2.40;99.90;;;;;;6274728;28;20466;-59
2021/01/08 07:01:01;;;;;;;35.30;21.17;;;2.30;99.90;;;;;;6274574;28;20537;-60
2021/01/08 07:04:05;;;;;;;37.60;21.47;;;2.30;99.90;;;;;;6274564;28;20989;-60
2021/01/08 07:07:12;;;;;;;38.03;20.90;;;2.40;99.90;;;;;;6274847;28;20466;-59
2021/01/08 07:10:17;;;;;;;35.90;22.03;;;2.40;99.90;;;;;;6274554;28;20467;-59
2021/01/08 07:13:29;;;;;;;33.53;20.60;;;2.50;99.90;;;;;;6274401;28;20497;-60
2021/01/08 07:16:32;;;;;;;32.57;18.97;;;2.50;99.90;;;;;;6274694;28;20488;-59
2021/01/08 07:19:39;;;;;;;29.07;17.87;;;2.50;99.90;;;;;;6274779;28;20785;-59
2021/01/08 07:22:42;;;;;;;32.60;20.70;;;2.60;99.90;;;;;;6274903;28;20478;-59
2021/01/08 07:25:44;;;;;;;36.60;19.57;;;2.60;99.90;;;;;;6274708;28;20485;-60
2021/01/08 07:28:53;;;;;;;33.50;20.63;;;2.60;99.90;;;;;;6274165;28;20481;-59
2021/01/08 07:31:57;;;;;;;35.27;19.73;;;2.60;99.90;;;;;;6274883;28;20486;-59
2021/01/08 07:35:13;;;;;;;37.57;20.50;;;2.60;99.90;;;;;;6274709;28;20466;-60
2021/01/08 07:38:15;;;;;;;37.60;21.73;;;2.50;99.90;;;;;;6273694;28;20894;-61
2021/01/08 07:41:37;;;;;;;35.23;19.93;;;2.50;99.90;;;;;;6271878;28;20484;-60
2021/01/08 07:44:40;;;;;;;41.43;19.03;;;2.50;99.90;;;;;;6279078;28;20542;-59
2021/01/08 07:47:43;;;;;;;29.13;18.67;;;2.50;99.90;;;;;;6279185;28;20477;-60
2021/01/08 07:50:57;;;;;;;34.20;19.07;;;2.50;99.90;;;;;;6278860;28;20526;-59
2021/01/08 07:53:59;;;;;;;34.10;20.30;;;2.60;99.90;;;;;;6278549;28;20470;-59
2021/01/08 07:57:08;;;;;;;28.97;18.10;;;2.60;99.90;;;;;;6278372;28;20820;-59
2021/01/08 08:00:26;;;;;;;33.77;18.70;;;2.60;99.90;;;;;;6277815;28;20475;-59
2021/01/08 08:03:29;;;;;;;30.30;17.57;;;2.60;99.90;;;;;;6264293;28;20835;-59
2021/01/08 08:06:33;;;;;;;25.27;16.77;;;2.60;99.90;;;;;;6269385;28;21005;-59
2021/01/08 08:09:35;;;;;;;32.57;17.87;;;2.60;99.90;;;;;;6271375;28;21033;-59
2021/01/08 08:12:37;;;;;;;27.80;18.07;;;2.70;99.90;;;;;;6252812;28;20992;-59
2021/01/08 08:15:46;;;;;;;27.63;16.30;;;2.70;99.90;;;;;;6253915;28;20537;-60
2021/01/08 08:18:53;;;;;;;27.40;16.90;;;2.80;99.90;;;;;;6265369;28;20471;-59
2021/01/08 08:21:57;;;;;;;26.50;18.70;;;2.90;99.90;;;;;;6277665;28;20479;-59
2021/01/08 08:24:59;;;;;;;30.00;17.57;;;2.90;99.90;;;;;;6277264;28;20466;-59
2021/01/08 08:28:01;;;;;;;24.50;16.07;;;2.90;99.90;;;;;;6276390;28;20860;-60
2021/01/08 08:31:04;;;;;;;27.33;16.10;;;3.00;99.90;;;;;;6277121;28;20958;-59
2021/01/08 08:34:08;;;;;;;28.83;17.40;;;3.00;99.90;;;;;;6277357;28;20474;-60
2021/01/08 08:37:11;;;;;;;23.67;16.70;;;3.00;99.90;;;;;;6274361;28;20466;-60
2021/01/08 08:40:14;;;;;;;34.13;17.80;;;3.00;99.90;;;;;;6275701;28;20487;-60
2021/01/08 08:43:22;;;;;;;28.93;18.13;;;3.00;99.90;;;;;;6276294;28;20966;-62
2021/01/08 08:46:24;;;;;;;27.90;17.60;;;3.10;99.90;;;;;;6275896;28;20477;-62
2021/01/08 08:49:30;;;;;;;34.07;19.00;;;3.10;99.90;;;;;;6276632;28;20545;-62
2021/01/08 08:52:33;;;;;;;26.20;17.70;;;3.10;99.90;;;;;;6275990;28;20485;-61
2021/01/08 08:55:35;;;;;;;21.63;15.53;;;3.20;99.90;;;;;;6276186;28;20478;-61
2021/01/08 08:58:45;;;;;;;25.83;14.97;;;3.40;99.90;;;;;;6274897;28;20465;-61
2021/01/08 09:01:47;;;;;;;24.50;17.90;;;3.60;99.90;;;;;;6272133;28;20487;-61
2021/01/08 09:04:54;;;;;;;20.63;14.70;;;3.70;99.90;;;;;;6274904;28;20478;-62
2021/01/08 09:08:04;;;;;;;22.63;15.33;;;3.80;99.90;;;;;;6274473;28;20467;-62
2021/01/08 09:11:18;;;;;;;19.27;13.50;;;4.10;99.90;;;;;;6273004;28;20821;-61
2021/01/08 09:14:23;;;;;;;23.33;14.10;;;4.20;99.90;;;;;;6273223;28;20473;-61
2021/01/08 09:17:33;;;;;;;24.97;16.70;;;4.50;99.90;;;;;;6274715;28;20481;-61
2021/01/08 09:20:43;;;;;;;20.73;14.27;;;4.50;99.90;;;;;;6272725;28;20513;-62
2021/01/08 09:23:47;;;;;;;21.50;14.90;;;4.60;99.90;;;;;;6274842;28;20466;-62
2021/01/08 09:26:53;;;;;;;22.43;17.17;;;4.80;99.90;;;;;;6275725;28;20462;-62
2021/01/08 09:30:06;;;;;;;22.07;15.23;;;5.10;99.90;;;;;;6275564;28;20458;-62
2021/01/08 09:33:13;;;;;;;21.73;15.30;;;5.10;99.90;;;;;;6274528;28;20466;-62
2021/01/08 09:36:28;;;;;;;22.33;16.50;;;5.00;99.90;;;;;;6271979;28;20466;-62
2021/01/08 09:39:30;;;;;;;20.70;15.60;;;4.90;99.90;;;;;;6274024;28;20483;-62
2021/01/08 09:42:36;;;;;;;18.07;13.80;;;5.00;99.90;;;;;;6273557;28;20841;-62
2021/01/08 09:45:38;;;;;;;21.10;15.00;;;5.10;99.90;;;;;;6274036;28;20494;-62
2021/01/08 09:48:41;;;;;;;20.40;14.83;;;5.20;99.90;;;;;;6274897;28;21020;-62
2021/01/08 09:51:44;;;;;;;20.80;14.70;;;5.20;99.90;;;;;;6266009;28;20478;-62
2021/01/08 09:54:50;;;;;;;17.10;15.13;;;5.30;99.90;;;;;;6275501;28;20478;-61
2021/01/08 09:57:58;;;;;;;20.60;14.30;;;5.40;99.90;;;;;;6275796;28;20966;-62
2021/01/08 10:01:00;;;;;;;20.20;15.40;;;5.60;99.90;;;;;;6275273;28;20497;-61
2021/01/08 10:04:03;;;;;;;20.87;15.27;;;5.70;99.90;;;;;;6269135;28;20470;-60
2021/01/08 10:07:07;;;;;;;20.10;17.00;;;6.10;99.80;;;;;;6273620;28;20490;-62
2021/01/08 10:10:12;;;;;;;20.77;15.57;;;6.30;99.60;;;;;;6273237;28;20579;-61
2021/01/08 10:13:22;;;;;;;23.70;16.23;;;6.90;99.40;;;;;;6271039;28;20477;-61
2021/01/08 10:16:24;;;;;;;23.57;16.90;;;7.50;98.20;;;;;;6273462;28;20712;-61
2021/01/08 10:19:32;;;;;;;20.33;15.03;;;8.10;96.80;;;;;;6273346;28;20615;-61
2021/01/08 10:22:49;;;;;;;19.83;15.57;;;8.40;95.40;;;;;;6271074;28;20567;-61
2021/01/08 10:25:52;;;;;;;19.33;16.20;;;8.60;94.80;;;;;;6272292;28;20474;-61
2021/01/08 10:28:55;;;;;;;24.43;14.60;;;8.70;94.00;;;;;;6273051;28;20485;-61
2021/01/08 10:32:06;;;;;;;20.30;15.00;;;8.80;94.10;;;;;;6273068;28;20466;-61
2021/01/08 10:35:11;;;;;;;20.53;16.80;;;8.70;93.50;;;;;;6273008;28;20475;-60
2021/01/08 10:38:14;;;;;;;20.80;15.80;;;8.60;93.30;;;;;;6270820;28;20470;-60
2021/01/08 10:41:21;;;;;;;19.80;15.53;;;8.50;93.70;;;;;;6273077;28;20561;-61
2021/01/08 10:44:24;;;;;;;20.23;14.90;;;8.40;93.30;;;;;;6273201;28;20435;-60
2021/01/08 10:47:26;;;;;;;19.37;15.10;;;8.20;93.20;;;;;;6272953;28;20465;-60
2021/01/08 10:50:40;;;;;;;21.70;15.60;;;8.00;92.70;;;;;;6271867;28;20455;-60
2021/01/08 10:53:43;;;;;;;20.97;16.67;;;7.70;93.00;;;;;;6269471;28;20462;-60
2021/01/08 10:56:45;;;;;;;20.07;16.17;;;7.70;93.70;;;;;;6273700;28;20484;-60
2021/01/08 10:59:48;;;;;;;25.33;15.53;;;7.40;94.30;;;;;;6274038;28;20471;-60
2021/01/08 11:02:51;;;;;;;20.10;14.97;;;7.60;94.60;;;;;;6273751;28;20791;-61
2021/01/08 11:05:54;;;;;;;25.43;16.40;;;7.60;94.00;;;;;;6274104;28;21014;-60
2021/01/08 11:08:57;;;;;;;17.63;14.63;;;7.60;93.70;;;;;;6274165;28;20465;-60
2021/01/08 11:11:59;;;;;;;19.07;14.03;;;7.70;93.90;;;;;;6273832;28;20981;-61
2021/01/08 11:15:01;;;;;;;22.60;15.43;;;7.90;93.40;;;;;;6275495;28;20489;-61
2021/01/08 11:18:04;;;;;;;19.73;15.20;;;7.90;93.00;;;;;;6279659;28;20466;-61
2021/01/08 11:21:06;;;;;;;19.90;14.53;;;8.00;93.00;;;;;;6279004;28;20489;-60
2021/01/08 11:24:10;;;;;;;19.03;13.43;;;9.00;91.90;;;;;;6279342;28;20585;-61
2021/01/08 11:27:12;;;;;;;18.87;14.23;;;8.90;90.40;;;;;;6278540;28;20549;-61
2021/01/08 11:30:15;;;;;;;19.23;13.97;;;9.30;90.40;;;;;;6275498;28;20466;-60
2021/01/08 11:33:17;;;;;;;14.63;11.53;;;9.70;90.00;;;;;;6277993;28;20481;-61
2021/01/08 11:36:20;;;;;;;17.17;13.97;;;9.90;87.30;;;;;;6278507;28;20492;-62
2021/01/08 11:39:24;;;;;;;16.40;11.87;;;9.30;86.40;;;;;;6279003;28;20480;-62
2021/01/08 11:42:26;;;;;;;18.10;14.60;;;9.20;86.80;;;;;;6278811;28;20480;-59
2021/01/08 11:45:29;;;;;;;14.77;13.20;;;9.10;88.20;;;;;;6278675;28;20468;-60
2021/01/08 11:48:31;;;;;;;18.43;12.47;;;9.90;86.40;;;;;;6278182;28;20834;-59
2021/01/08 11:51:33;;;;;;;16.63;13.03;;;10.60;81.60;;;;;;6278297;28;20469;-59
2021/01/08 11:54:36;;;;;;;20.20;13.47;;;10.70;80.10;;;;;;6277860;28;20466;-59
2021/01/08 11:57:40;;;;;;;18.83;12.43;;;10.20;79.80;;;;;;6278113;28;20548;-62
2021/01/08 12:00:42;;;;;;;14.10;12.00;;;10.00;79.00;;;;;;6278273;28;20474;-61
2021/01/08 12:03:44;;;;;;;14.17;12.33;;;9.80;81.60;;;;;;6267088;28;20592;-60
2021/01/08 12:06:46;;;;;;;16.17;11.67;;;10.00;80.80;;;;;;6278114;28;20465;-60
2021/01/08 12:09:49;;;;;;;17.10;11.80;;;11.10;77.90;;;;;;6277075;28;20462;-59
2021/01/08 12:12:52;;;;;;;15.23;12.50;;;12.90;73.60;;;;;;6277397;28;20485;-61
2021/01/08 12:15:54;;;;;;;15.37;11.30;;;14.30;67.20;;;;;;6277095;28;20466;-60
2021/01/08 12:18:56;;;;;;;15.80;11.73;;;16.60;59.70;;;;;;6276935;28;20465;-61
2021/01/08 12:21:58;;;;;;;13.03;11.73;;;17.90;51.60;;;;;;6275913;28;20470;-61
2021/01/08 12:25:02;;;;;;;14.13;11.63;;;19.30;47.80;;;;;;6276976;28;20564;-62
2021/01/08 12:28:07;;;;;;;12.80;10.60;;;19.90;43.10;;;;;;6276332;28;20549;-61
2021/01/08 12:31:23;;;;;;;17.17;13.17;;;20.20;41.40;;;;;;6277028;28;20974;-61
2021/01/08 12:34:25;;;;;;;13.50;12.10;;;21.20;39.70;;;;;;6275694;28;20475;-62
2021/01/08 12:37:27;;;;;;;13.80;12.23;;;22.20;37.50;;;;;;6252705;28;20704;-61
2021/01/08 12:40:33;;;;;;;15.27;11.70;;;23.00;35.30;;;;;;6252281;28;20696;-60
2021/01/08 12:43:53;;;;;;;14.13;12.20;;;22.00;34.30;;;;;;6252295;28;20688;-60
2021/01/08 12:46:59;;;;;;;12.30;11.00;;;23.20;34.20;;;;;;6252225;28;20239;-61
2021/01/08 12:50:03;;;;;;;11.20;10.07;;;24.40;32.40;;;;;;6252498;28;20232;-60
2021/01/08 12:53:05;;;;;;;14.07;10.53;;;25.10;31.10;;;;;;6252005;28;20587;-61
2021/01/08 12:56:08;;;;;;;11.03;10.03;;;26.00;29.40;;;;;;6252354;28;20239;-61
2021/01/08 12:59:11;;;;;;;14.50;9.77;;;26.60;28.20;;;;;;6251855;28;20228;-60
2021/01/08 13:02:13;;;;;;;9.97;9.07;;;26.50;26.90;;;;;;6251770;28;20238;-61
2021/01/08 13:05:18;;;;;;;11.07;10.03;;;25.50;27.10;;;;;;6272619;28;20224;-61
2021/01/08 13:08:20;;;;;;;11.40;10.40;;;23.70;28.50;;;;;;6276830;28;20224;-61
2021/01/08 13:11:24;;;;;;;12.00;10.50;;;22.40;29.80;;;;;;6276384;28;20219;-62
2021/01/08 13:14:26;;;;;;;11.40;10.33;;;22.10;30.80;;;;;;6276484;28;20242;-61
2021/01/08 13:17:28;;;;;;;10.47;9.47;;;22.30;30.70;;;;;;6276543;28;20254;-61
2021/01/08 13:20:31;;;;;;;11.03;10.00;;;22.10;29.50;;;;;;6276729;28;20224;-61
2021/01/08 13:23:34;;;;;;;11.20;10.10;;;20.40;31.50;;;;;;6276382;28;20208;-61
2021/01/08 13:26:38;;;;;;;11.17;9.93;;;17.70;34.90;;;;;;6276368;28;20458;-61
2021/01/08 13:29:40;;;;;;;10.97;9.13;;;15.90;37.90;;;;;;6276261;28;20508;-61
2021/01/08 13:32:42;;;;;;;10.20;9.20;;;13.50;42.70;;;;;;6275766;28;20478;-60
2021/01/08 13:35:44;;;;;;;12.00;10.43;;;12.20;45.50;;;;;;6276053;28;20470;-60
2021/01/08 13:38:47;;;;;;;10.40;9.37;;;11.70;47.20;;;;;;6275002;28;20470;-61
2021/01/08 13:42:01;;;;;;;11.93;9.70;;;11.10;48.60;;;;;;6275365;28;20984;-63
2021/01/08 13:45:03;;;;;;;14.10;10.27;;;10.40;50.80;;;;;;6276019;28;20489;-63
2021/01/08 13:48:06;;;;;;;11.33;10.33;;;9.60;53.80;;;;;;6275745;28;20790;-62
2021/01/08 13:51:16;;;;;;;12.47;10.13;;;9.00;56.10;;;;;;6275957;28;20482;-61
2021/01/08 13:54:18;;;;;;;12.63;9.90;;;8.50;58.40;;;;;;6275558;28;20466;-61
2021/01/08 13:57:21;;;;;;;15.40;10.97;;;8.20;60.50;;;;;;6275625;28;20466;-61
2021/01/08 14:00:23;;;;;;;12.13;10.67;;;8.00;62.90;;;;;;6275492;28;20489;-61
2021/01/08 14:03:25;;;;;;;16.40;10.90;;;7.70;66.20;;;;;;6264478;28;20463;-59
2021/01/08 14:06:28;;;;;;;10.80;9.70;;;7.20;68.30;;;;;;6266074;28;20477;-61
2021/01/08 14:09:30;;;;;;;15.67;11.93;;;6.90;71.10;;;;;;6275105;28;20811;-61
2021/01/08 14:12:34;;;;;;;12.90;10.57;;;6.80;74.00;;;;;;6258456;28;20480;-60
2021/01/08 14:15:37;;;;;;;21.33;11.30;;;6.70;76.00;;;;;;6258931;28;20599;-61
2021/01/08 14:18:40;;;;;;;14.13;11.60;;;6.60;78.00;;;;;;6275211;28;20616;-64
2021/01/08 14:21:42;;;;;;;13.60;10.60;;;6.40;82.10;;;;;;6274643;28;20473;-62
2021/01/08 14:24:44;;;;;;;13.30;10.80;;;6.40;82.60;;;;;;6275236;28;20532;-66
2021/01/08 14:27:47;;;;;;;13.57;12.17;;;6.30;83.20;;;;;;6274987;28;20480;-62
2021/01/08 14:30:50;;;;;;;15.00;11.30;;;6.10;84.60;;;;;;6275050;28;20516;-62
2021/01/08 14:33:52;;;;;;;16.50;11.07;;;6.10;85.20;;;;;;6274965;28;20954;-62
2021/01/08 14:36:59;;;;;;;14.00;10.70;;;6.00;86.60;;;;;;6275166;28;20966;-63
2021/01/08 14:40:03;;;;;;;12.03;10.53;;;5.80;87.00;;;;;;6274749;28;20472;-61
2021/01/08 14:43:06;;;;;;;14.67;11.23;;;5.90;87.60;;;;;;6274500;28;20473;-62
2021/01/08 14:46:15;;;;;;;12.60;10.87;;;5.90;88.00;;;;;;6274497;28;20929;-62
2021/01/08 14:49:17;;;;;;;11.63;10.47;;;5.90;88.20;;;;;;6274068;28;20528;-62
2021/01/08 14:52:19;;;;;;;14.77;11.43;;;5.90;88.20;;;;;;6274860;28;20474;-61
2021/01/08 14:55:21;;;;;;;15.60;11.10;;;5.90;89.10;;;;;;6274286;28;20475;-62
2021/01/08 14:58:26;;;;;;;12.23;10.97;;;5.90;89.60;;;;;;6273967;28;20481;-62
2021/01/08 15:01:28;;;;;;;10.87;9.73;;;5.80;90.40;;;;;;6273961;28;20982;-62
2021/01/08 15:04:30;;;;;;;12.17;10.23;;;5.80;90.20;;;;;;6263913;28;20466;-61
2021/01/08 15:07:32;;;;;;;16.80;11.33;;;5.80;90.20;;;;;;6273425;28;20631;-62
2021/01/08 15:10:35;;;;;;;13.93;10.67;;;5.80;90.30;;;;;;6269072;28;20787;-61
2021/01/08 15:13:39;;;;;;;14.77;12.57;;;5.70;90.50;;;;;;6273848;28;20982;-61
2021/01/08 15:16:41;;;;;;;12.83;11.50;;;5.60;90.70;;;;;;6273897;28;20801;-62
2021/01/08 15:19:43;;;;;;;13.20;10.63;;;5.60;90.70;;;;;;6274118;28;20511;-61
2021/01/08 15:22:46;;;;;;;13.23;11.20;;;5.40;91.10;;;;;;6270558;28;20471;-61
2021/01/08 15:25:49;;;;;;;20.90;14.23;;;5.40;91.40;;;;;;6249273;28;20467;-61
2021/01/08 15:28:52;;;;;;;18.17;13.53;;;5.30;91.80;;;;;;6248638;28;20481;-61
2021/01/08 15:32:01;;;;;;;16.17;11.83;;;5.20;92.00;;;;;;6248902;28;20471;-61
2021/01/08 15:35:04;;;;;;;21.17;15.63;;;5.10;92.40;;;;;;6248944;28;20815;-61
2021/01/08 15:38:07;;;;;;;17.97;15.37;;;5.20;92.60;;;;;;6249147;28;20571;-62
2021/01/08 15:41:10;;;;;;;13.13;11.70;;;5.10;93.10;;;;;;6248860;28;20481;-62
2021/01/08 15:44:16;;;;;;;17.30;12.80;;;5.10;93.00;;;;;;6248862;28;20475;-62